sensor_id;sensor_type;location;lat;lon;timestamp;P1;durP1;ratioP1;P2;durP2;ratioP2
46439;SDS011;32138;50.966;6.968;2023-11-22T00:01:24;13.20;;;10.45;;
46439;SDS011;32138;50.966;6.968;2023-11-22T00:02:56;12.23;;;9.98;;
46439;SDS011;32138;50.966;6.968;2023-11-22T00:04:26;14.20;;;10.98;;
46439;SDS011;32138;50.966;6.968;2023-11-22T00:05:57;13.50;;;10.43;;
46439;SDS011;32138;50.966;6.968;2023-11-22T00:07:28;14.35;;;10.40;;
46439;SDS011;32138;50.966;6.968;2023-11-22T00:08:59;13.48;;;10.88;;
46439;SDS011;32138;50.966;6.968;2023-11-22T00:10:29;13.70;;;10.05;;
46439;SDS011;32138;50.966;6.968;2023-11-22T00:12:00;11.13;;;9.98;;
46439;SDS011;32138;50.966;6.968;2023-11-22T00:13:32;14.52;;;9.88;;
46439;SDS011;32138;50.966;6.968;2023-11-22T00:15:06;13.05;;;10.50;;
46439;SDS011;32138;50.966;6.968;2023-11-22T00:16:38;14.43;;;9.30;;
46439;SDS011;32138;50.966;6.968;2023-11-22T00:18:10;12.85;;;10.93;;
46439;SDS011;32138;50.966;6.968;2023-11-22T00:19:41;11.32;;;9.40;;
46439;SDS011;32138;50.966;6.968;2023-11-22T00:21:11;13.57;;;10.10;;
46439;SDS011;32138;50.966;6.968;2023-11-22T00:22:42;12.27;;;10.05;;
46439;SDS011;32138;50.966;6.968;2023-11-22T00:24:15;12.82;;;9.75;;
46439;SDS011;32138;50.966;6.968;2023-11-22T00:25:45;12.50;;;10.10;;
46439;SDS011;32138;50.966;6.968;2023-11-22T00:27:16;13.38;;;9.73;;
46439;SDS011;32138;50.966;6.968;2023-11-22T00:28:47;11.27;;;10.02;;
46439;SDS011;32138;50.966;6.968;2023-11-22T00:30:19;11.73;;;9.27;;
46439;SDS011;32138;50.966;6.968;2023-11-22T00:31:50;12.85;;;9.43;;
46439;SDS011;32138;50.966;6.968;2023-11-22T00:33:21;12.25;;;10.80;;
46439;SDS011;32138;50.966;6.968;2023-11-22T00:34:51;18.05;;;11.60;;
46439;SDS011;32138;50.966;6.968;2023-11-22T00:36:22;17.17;;;10.10;;
46439;SDS011;32138;50.966;6.968;2023-11-22T00:37:53;12.13;;;9.98;;
46439;SDS011;32138;50.966;6.968;2023-11-22T00:39:24;10.45;;;9.27;;
46439;SDS011;32138;50.966;6.968;2023-11-22T00:40:55;14.25;;;10.55;;
46439;SDS011;32138;50.966;6.968;2023-11-22T00:42:26;13.20;;;9.90;;
46439;SDS011;32138;50.966;6.968;2023-11-22T00:43:57;15.07;;;10.80;;
46439;SDS011;32138;50.966;6.968;2023-11-22T00:45:28;12.02;;;10.15;;
46439;SDS011;32138;50.966;6.968;2023-11-22T00:46:59;15.48;;;11.07;;
46439;SDS011;32138;50.966;6.968;2023-11-22T00:48:30;11.70;;;9.52;;
46439;SDS011;32138;50.966;6.968;2023-11-22T00:50:01;15.50;;;10.55;;
46439;SDS011;32138;50.966;6.968;2023-11-22T00:51:34;13.35;;;9.82;;
46439;SDS011;32138;50.966;6.968;2023-11-22T00:53:05;11.27;;;9.40;;
46439;SDS011;32138;50.966;6.968;2023-11-22T00:54:35;11.98;;;9.40;;
46439;SDS011;32138;50.966;6.968;2023-11-22T00:56:06;15.77;;;10.10;;
46439;SDS011;32138;50.966;6.968;2023-11-22T00:57:37;14.48;;;11.23;;
46439;SDS011;32138;50.966;6.968;2023-11-22T00:59:08;12.88;;;9.98;;
46439;SDS011;32138;50.966;6.968;2023-11-22T01:00:38;12.70;;;10.65;;
46439;SDS011;32138;50.966;6.968;2023-11-22T01:02:09;13.65;;;9.45;;
46439;SDS011;32138;50.966;6.968;2023-11-22T01:03:40;11.77;;;10.20;;
46439;SDS011;32138;50.966;6.968;2023-11-22T01:05:11;13.40;;;10.02;;
46439;SDS011;32138;50.966;6.968;2023-11-22T01:06:42;15.95;;;10.85;;
46439;SDS011;32138;50.966;6.968;2023-11-22T01:08:13;12.88;;;10.40;;
46439;SDS011;32138;50.966;6.968;2023-11-22T01:09:44;14.98;;;10.07;;
46439;SDS011;32138;50.966;6.968;2023-11-22T01:11:14;13.93;;;11.45;;
46439;SDS011;32138;50.966;6.968;2023-11-22T01:12:45;12.25;;;10.40;;
46439;SDS011;32138;50.966;6.968;2023-11-22T01:14:16;13.00;;;10.45;;
46439;SDS011;32138;50.966;6.968;2023-11-22T01:15:47;14.48;;;11.82;;
46439;SDS011;32138;50.966;6.968;2023-11-22T01:17:18;13.43;;;10.05;;
46439;SDS011;32138;50.966;6.968;2023-11-22T01:18:48;14.88;;;10.75;;
46439;SDS011;32138;50.966;6.968;2023-11-22T01:20:19;14.30;;;10.65;;
46439;SDS011;32138;50.966;6.968;2023-11-22T01:21:52;14.05;;;11.52;;
46439;SDS011;32138;50.966;6.968;2023-11-22T01:23:23;15.55;;;11.57;;
46439;SDS011;32138;50.966;6.968;2023-11-22T01:24:54;13.15;;;10.70;;
46439;SDS011;32138;50.966;6.968;2023-11-22T01:26:25;13.88;;;10.73;;
46439;SDS011;32138;50.966;6.968;2023-11-22T01:27:55;12.85;;;10.05;;
46439;SDS011;32138;50.966;6.968;2023-11-22T01:29:26;13.35;;;11.00;;
46439;SDS011;32138;50.966;6.968;2023-11-22T01:30:58;14.88;;;10.43;;
46439;SDS011;32138;50.966;6.968;2023-11-22T01:32:30;14.20;;;10.65;;
46439;SDS011;32138;50.966;6.968;2023-11-22T01:34:01;13.30;;;10.70;;
46439;SDS011;32138;50.966;6.968;2023-11-22T01:35:33;13.52;;;10.32;;
46439;SDS011;32138;50.966;6.968;2023-11-22T01:37:04;15.82;;;11.68;;
46439;SDS011;32138;50.966;6.968;2023-11-22T01:38:35;15.10;;;11.20;;
46439;SDS011;32138;50.966;6.968;2023-11-22T01:40:09;13.85;;;11.50;;
46439;SDS011;32138;50.966;6.968;2023-11-22T01:41:40;13.57;;;10.20;;
46439;SDS011;32138;50.966;6.968;2023-11-22T01:43:14;11.75;;;10.43;;
46439;SDS011;32138;50.966;6.968;2023-11-22T01:44:48;15.15;;;11.55;;
46439;SDS011;32138;50.966;6.968;2023-11-22T01:46:23;12.75;;;10.23;;
46439;SDS011;32138;50.966;6.968;2023-11-22T01:47:55;14.32;;;12.07;;
46439;SDS011;32138;50.966;6.968;2023-11-22T01:49:26;13.05;;;10.80;;
46439;SDS011;32138;50.966;6.968;2023-11-22T01:50:57;16.27;;;11.50;;
46439;SDS011;32138;50.966;6.968;2023-11-22T01:52:28;14.43;;;10.40;;
46439;SDS011;32138;50.966;6.968;2023-11-22T01:53:58;15.48;;;11.00;;
46439;SDS011;32138;50.966;6.968;2023-11-22T01:55:30;11.65;;;10.05;;
46439;SDS011;32138;50.966;6.968;2023-11-22T01:57:01;17.70;;;11.50;;
46439;SDS011;32138;50.966;6.968;2023-11-22T01:58:33;11.75;;;10.48;;
46439;SDS011;32138;50.966;6.968;2023-11-22T02:00:05;13.70;;;11.13;;
46439;SDS011;32138;50.966;6.968;2023-11-22T02:01:44;12.23;;;10.23;;
46439;SDS011;32138;50.966;6.968;2023-11-22T02:03:15;13.60;;;10.63;;
46439;SDS011;32138;50.966;6.968;2023-11-22T02:04:46;14.32;;;11.77;;
46439;SDS011;32138;50.966;6.968;2023-11-22T02:06:17;14.05;;;10.75;;
46439;SDS011;32138;50.966;6.968;2023-11-22T02:07:48;14.68;;;12.13;;
46439;SDS011;32138;50.966;6.968;2023-11-22T02:09:19;13.48;;;10.52;;
46439;SDS011;32138;50.966;6.968;2023-11-22T02:10:59;13.23;;;10.85;;
46439;SDS011;32138;50.966;6.968;2023-11-22T02:12:34;14.23;;;10.55;;
46439;SDS011;32138;50.966;6.968;2023-11-22T02:14:05;12.98;;;10.70;;
46439;SDS011;32138;50.966;6.968;2023-11-22T02:15:37;14.65;;;11.65;;
46439;SDS011;32138;50.966;6.968;2023-11-22T02:17:08;12.00;;;10.50;;
46439;SDS011;32138;50.966;6.968;2023-11-22T02:18:39;12.40;;;10.35;;
46439;SDS011;32138;50.966;6.968;2023-11-22T02:20:12;11.00;;;9.70;;
46439;SDS011;32138;50.966;6.968;2023-11-22T02:21:43;14.20;;;10.70;;
46439;SDS011;32138;50.966;6.968;2023-11-22T02:23:14;14.20;;;10.38;;
46439;SDS011;32138;50.966;6.968;2023-11-22T02:24:45;13.02;;;9.95;;
46439;SDS011;32138;50.966;6.968;2023-11-22T02:26:15;13.32;;;8.98;;
46439;SDS011;32138;50.966;6.968;2023-11-22T02:27:48;12.32;;;10.65;;
46439;SDS011;32138;50.966;6.968;2023-11-22T02:29:19;12.32;;;9.85;;
46439;SDS011;32138;50.966;6.968;2023-11-22T02:30:50;13.52;;;10.10;;
46439;SDS011;32138;50.966;6.968;2023-11-22T02:32:21;13.10;;;10.32;;
46439;SDS011;32138;50.966;6.968;2023-11-22T02:33:53;12.13;;;9.48;;
46439;SDS011;32138;50.966;6.968;2023-11-22T02:35:25;14.35;;;9.55;;
46439;SDS011;32138;50.966;6.968;2023-11-22T02:36:56;16.08;;;10.60;;
46439;SDS011;32138;50.966;6.968;2023-11-22T02:38:28;12.88;;;9.45;;
46439;SDS011;32138;50.966;6.968;2023-11-22T02:40:05;13.07;;;9.95;;
46439;SDS011;32138;50.966;6.968;2023-11-22T02:41:37;10.43;;;9.05;;
46439;SDS011;32138;50.966;6.968;2023-11-22T02:43:07;11.52;;;9.27;;
46439;SDS011;32138;50.966;6.968;2023-11-22T02:44:39;11.80;;;10.05;;
46439;SDS011;32138;50.966;6.968;2023-11-22T02:46:10;14.00;;;10.40;;
46439;SDS011;32138;50.966;6.968;2023-11-22T02:47:40;12.30;;;9.85;;
46439;SDS011;32138;50.966;6.968;2023-11-22T02:49:11;12.05;;;10.05;;
46439;SDS011;32138;50.966;6.968;2023-11-22T02:50:42;11.38;;;9.45;;
46439;SDS011;32138;50.966;6.968;2023-11-22T02:52:13;11.38;;;9.27;;
46439;SDS011;32138;50.966;6.968;2023-11-22T02:53:44;15.30;;;10.30;;
46439;SDS011;32138;50.966;6.968;2023-11-22T02:55:16;14.70;;;9.43;;
46439;SDS011;32138;50.966;6.968;2023-11-22T02:56:46;13.02;;;9.27;;
46439;SDS011;32138;50.966;6.968;2023-11-22T02:58:18;14.27;;;10.75;;
46439;SDS011;32138;50.966;6.968;2023-11-22T02:59:49;14.98;;;10.68;;
46439;SDS011;32138;50.966;6.968;2023-11-22T03:01:19;10.50;;;9.25;;
46439;SDS011;32138;50.966;6.968;2023-11-22T03:02:50;10.68;;;9.05;;
46439;SDS011;32138;50.966;6.968;2023-11-22T03:04:23;10.80;;;9.38;;
46439;SDS011;32138;50.966;6.968;2023-11-22T03:05:54;12.48;;;10.02;;
46439;SDS011;32138;50.966;6.968;2023-11-22T03:07:25;11.38;;;9.65;;
46439;SDS011;32138;50.966;6.968;2023-11-22T03:08:56;11.77;;;9.25;;
46439;SDS011;32138;50.966;6.968;2023-11-22T03:10:27;11.60;;;9.98;;
46439;SDS011;32138;50.966;6.968;2023-11-22T03:11:59;12.18;;;9.73;;
46439;SDS011;32138;50.966;6.968;2023-11-22T03:13:32;13.25;;;9.35;;
46439;SDS011;32138;50.966;6.968;2023-11-22T03:15:03;10.70;;;8.38;;
46439;SDS011;32138;50.966;6.968;2023-11-22T03:16:38;11.73;;;9.25;;
46439;SDS011;32138;50.966;6.968;2023-11-22T03:18:09;10.02;;;8.20;;
46439;SDS011;32138;50.966;6.968;2023-11-22T03:19:41;11.48;;;9.50;;
46439;SDS011;32138;50.966;6.968;2023-11-22T03:21:13;13.38;;;9.52;;
46439;SDS011;32138;50.966;6.968;2023-11-22T03:22:44;12.63;;;8.77;;
46439;SDS011;32138;50.966;6.968;2023-11-22T03:24:15;13.13;;;9.55;;
46439;SDS011;32138;50.966;6.968;2023-11-22T03:25:46;13.65;;;9.65;;
46439;SDS011;32138;50.966;6.968;2023-11-22T03:27:17;10.93;;;9.10;;
46439;SDS011;32138;50.966;6.968;2023-11-22T03:28:47;11.20;;;8.65;;
46439;SDS011;32138;50.966;6.968;2023-11-22T03:30:18;11.68;;;8.93;;
46439;SDS011;32138;50.966;6.968;2023-11-22T03:31:49;11.32;;;9.30;;
46439;SDS011;32138;50.966;6.968;2023-11-22T03:33:21;12.00;;;9.38;;
46439;SDS011;32138;50.966;6.968;2023-11-22T03:34:52;11.93;;;8.60;;
46439;SDS011;32138;50.966;6.968;2023-11-22T03:36:23;10.25;;;8.30;;
46439;SDS011;32138;50.966;6.968;2023-11-22T03:37:54;11.65;;;9.05;;
46439;SDS011;32138;50.966;6.968;2023-11-22T03:39:25;9.50;;;8.45;;
46439;SDS011;32138;50.966;6.968;2023-11-22T03:40:56;10.88;;;9.10;;
46439;SDS011;32138;50.966;6.968;2023-11-22T03:42:27;13.95;;;9.90;;
46439;SDS011;32138;50.966;6.968;2023-11-22T03:43:58;12.80;;;9.25;;
46439;SDS011;32138;50.966;6.968;2023-11-22T03:45:29;10.25;;;8.80;;
46439;SDS011;32138;50.966;6.968;2023-11-22T03:46:59;11.10;;;9.05;;
46439;SDS011;32138;50.966;6.968;2023-11-22T03:48:30;13.43;;;9.45;;
46439;SDS011;32138;50.966;6.968;2023-11-22T03:50:01;9.73;;;8.50;;
46439;SDS011;32138;50.966;6.968;2023-11-22T03:51:33;11.43;;;8.63;;
46439;SDS011;32138;50.966;6.968;2023-11-22T03:53:04;10.85;;;9.65;;
46439;SDS011;32138;50.966;6.968;2023-11-22T03:54:35;12.18;;;10.02;;
46439;SDS011;32138;50.966;6.968;2023-11-22T03:56:07;10.63;;;9.35;;
46439;SDS011;32138;50.966;6.968;2023-11-22T03:57:38;11.57;;;9.40;;
46439;SDS011;32138;50.966;6.968;2023-11-22T03:59:09;10.15;;;8.65;;
46439;SDS011;32138;50.966;6.968;2023-11-22T04:00:39;11.35;;;10.10;;
46439;SDS011;32138;50.966;6.968;2023-11-22T04:02:10;12.23;;;8.65;;
46439;SDS011;32138;50.966;6.968;2023-11-22T04:03:41;14.52;;;9.40;;
46439;SDS011;32138;50.966;6.968;2023-11-22T04:05:12;14.20;;;9.45;;
46439;SDS011;32138;50.966;6.968;2023-11-22T04:06:43;11.55;;;10.20;;
46439;SDS011;32138;50.966;6.968;2023-11-22T04:08:14;14.73;;;10.60;;
46439;SDS011;32138;50.966;6.968;2023-11-22T04:09:45;11.60;;;9.27;;
46439;SDS011;32138;50.966;6.968;2023-11-22T04:11:16;10.93;;;9.32;;
46439;SDS011;32138;50.966;6.968;2023-11-22T04:12:48;11.20;;;9.93;;
46439;SDS011;32138;50.966;6.968;2023-11-22T04:14:19;13.13;;;10.80;;
46439;SDS011;32138;50.966;6.968;2023-11-22T04:15:51;10.98;;;9.27;;
46439;SDS011;32138;50.966;6.968;2023-11-22T04:17:22;10.98;;;9.65;;
46439;SDS011;32138;50.966;6.968;2023-11-22T04:18:53;15.15;;;10.85;;
46439;SDS011;32138;50.966;6.968;2023-11-22T04:20:23;12.65;;;10.07;;
46439;SDS011;32138;50.966;6.968;2023-11-22T04:21:54;12.95;;;11.48;;
46439;SDS011;32138;50.966;6.968;2023-11-22T04:23:25;11.73;;;9.75;;
46439;SDS011;32138;50.966;6.968;2023-11-22T04:24:56;13.48;;;11.05;;
46439;SDS011;32138;50.966;6.968;2023-11-22T04:26:28;12.38;;;10.15;;
46439;SDS011;32138;50.966;6.968;2023-11-22T04:27:58;12.23;;;10.10;;
46439;SDS011;32138;50.966;6.968;2023-11-22T04:29:29;16.38;;;11.05;;
46439;SDS011;32138;50.966;6.968;2023-11-22T04:31:00;13.30;;;10.43;;
46439;SDS011;32138;50.966;6.968;2023-11-22T04:32:31;15.20;;;11.07;;
46439;SDS011;32138;50.966;6.968;2023-11-22T04:34:02;12.48;;;10.50;;
46439;SDS011;32138;50.966;6.968;2023-11-22T04:35:33;11.05;;;9.80;;
46439;SDS011;32138;50.966;6.968;2023-11-22T04:37:06;17.50;;;11.95;;
46439;SDS011;32138;50.966;6.968;2023-11-22T04:38:37;12.60;;;10.52;;
46439;SDS011;32138;50.966;6.968;2023-11-22T04:40:08;12.38;;;10.90;;
46439;SDS011;32138;50.966;6.968;2023-11-22T04:41:41;14.02;;;10.73;;
46439;SDS011;32138;50.966;6.968;2023-11-22T04:43:12;14.75;;;11.82;;
46439;SDS011;32138;50.966;6.968;2023-11-22T04:44:42;13.35;;;11.63;;
46439;SDS011;32138;50.966;6.968;2023-11-22T04:46:13;14.32;;;10.60;;
46439;SDS011;32138;50.966;6.968;2023-11-22T04:47:44;14.32;;;10.95;;
46439;SDS011;32138;50.966;6.968;2023-11-22T04:49:15;12.90;;;10.48;;
46439;SDS011;32138;50.966;6.968;2023-11-22T04:50:45;12.85;;;10.93;;
46439;SDS011;32138;50.966;6.968;2023-11-22T04:52:16;13.80;;;12.13;;
46439;SDS011;32138;50.966;6.968;2023-11-22T04:53:47;14.80;;;11.35;;
46439;SDS011;32138;50.966;6.968;2023-11-22T04:55:17;11.98;;;10.75;;
46439;SDS011;32138;50.966;6.968;2023-11-22T04:56:53;15.98;;;11.52;;
46439;SDS011;32138;50.966;6.968;2023-11-22T04:58:23;12.40;;;10.65;;
46439;SDS011;32138;50.966;6.968;2023-11-22T04:59:54;16.10;;;11.70;;
46439;SDS011;32138;50.966;6.968;2023-11-22T05:01:30;15.13;;;10.93;;
46439;SDS011;32138;50.966;6.968;2023-11-22T05:03:02;14.40;;;11.48;;
46439;SDS011;32138;50.966;6.968;2023-11-22T05:04:33;15.05;;;12.40;;
46439;SDS011;32138;50.966;6.968;2023-11-22T05:06:04;16.08;;;11.73;;
46439;SDS011;32138;50.966;6.968;2023-11-22T05:07:35;14.38;;;11.77;;
46439;SDS011;32138;50.966;6.968;2023-11-22T05:09:06;16.00;;;12.30;;
46439;SDS011;32138;50.966;6.968;2023-11-22T05:10:37;15.60;;;11.85;;
46439;SDS011;32138;50.966;6.968;2023-11-22T05:12:08;15.32;;;12.00;;
46439;SDS011;32138;50.966;6.968;2023-11-22T05:13:38;14.85;;;12.10;;
46439;SDS011;32138;50.966;6.968;2023-11-22T05:15:09;15.98;;;12.40;;
46439;SDS011;32138;50.966;6.968;2023-11-22T05:16:40;15.85;;;11.98;;
46439;SDS011;32138;50.966;6.968;2023-11-22T05:18:11;15.77;;;13.05;;
46439;SDS011;32138;50.966;6.968;2023-11-22T05:19:42;19.15;;;12.98;;
46439;SDS011;32138;50.966;6.968;2023-11-22T05:21:13;15.82;;;13.25;;
46439;SDS011;32138;50.966;6.968;2023-11-22T05:22:44;16.38;;;11.25;;
46439;SDS011;32138;50.966;6.968;2023-11-22T05:24:14;16.50;;;12.07;;
46439;SDS011;32138;50.966;6.968;2023-11-22T05:25:45;15.13;;;11.43;;
46439;SDS011;32138;50.966;6.968;2023-11-22T05:27:16;15.88;;;11.98;;
46439;SDS011;32138;50.966;6.968;2023-11-22T05:28:47;12.13;;;10.32;;
46439;SDS011;32138;50.966;6.968;2023-11-22T05:30:18;13.70;;;11.20;;
46439;SDS011;32138;50.966;6.968;2023-11-22T05:31:50;14.32;;;12.15;;
46439;SDS011;32138;50.966;6.968;2023-11-22T05:33:22;13.65;;;10.00;;
46439;SDS011;32138;50.966;6.968;2023-11-22T05:34:54;13.88;;;11.82;;
46439;SDS011;32138;50.966;6.968;2023-11-22T05:36:24;15.57;;;12.23;;
46439;SDS011;32138;50.966;6.968;2023-11-22T05:37:55;13.43;;;11.45;;
46439;SDS011;32138;50.966;6.968;2023-11-22T05:39:27;14.02;;;10.60;;
46439;SDS011;32138;50.966;6.968;2023-11-22T05:40:58;14.15;;;11.93;;
46439;SDS011;32138;50.966;6.968;2023-11-22T05:42:28;15.52;;;11.43;;
46439;SDS011;32138;50.966;6.968;2023-11-22T05:43:59;16.17;;;10.90;;
46439;SDS011;32138;50.966;6.968;2023-11-22T05:45:30;12.18;;;10.55;;
46439;SDS011;32138;50.966;6.968;2023-11-22T05:47:01;12.55;;;10.88;;
46439;SDS011;32138;50.966;6.968;2023-11-22T05:48:31;13.35;;;10.30;;
46439;SDS011;32138;50.966;6.968;2023-11-22T05:50:04;12.50;;;8.85;;
46439;SDS011;32138;50.966;6.968;2023-11-22T05:51:37;12.48;;;9.55;;
46439;SDS011;32138;50.966;6.968;2023-11-22T05:53:08;13.07;;;10.23;;
46439;SDS011;32138;50.966;6.968;2023-11-22T05:54:41;12.27;;;9.32;;
46439;SDS011;32138;50.966;6.968;2023-11-22T05:56:11;10.18;;;8.57;;
46439;SDS011;32138;50.966;6.968;2023-11-22T05:57:42;10.80;;;9.32;;
46439;SDS011;32138;50.966;6.968;2023-11-22T05:59:13;13.35;;;9.02;;
46439;SDS011;32138;50.966;6.968;2023-11-22T06:00:44;10.43;;;8.82;;
46439;SDS011;32138;50.966;6.968;2023-11-22T06:02:16;10.07;;;8.48;;
46439;SDS011;32138;50.966;6.968;2023-11-22T06:03:47;13.13;;;9.73;;
46439;SDS011;32138;50.966;6.968;2023-11-22T06:05:18;11.55;;;8.35;;
46439;SDS011;32138;50.966;6.968;2023-11-22T06:06:49;10.48;;;7.55;;
46439;SDS011;32138;50.966;6.968;2023-11-22T06:08:21;10.07;;;8.77;;
46439;SDS011;32138;50.966;6.968;2023-11-22T06:09:51;10.32;;;8.45;;
46439;SDS011;32138;50.966;6.968;2023-11-22T06:11:22;10.80;;;8.23;;
46439;SDS011;32138;50.966;6.968;2023-11-22T06:12:55;11.10;;;7.97;;
46439;SDS011;32138;50.966;6.968;2023-11-22T06:14:26;10.80;;;8.73;;
46439;SDS011;32138;50.966;6.968;2023-11-22T06:15:57;8.25;;;7.18;;
46439;SDS011;32138;50.966;6.968;2023-11-22T06:17:27;10.77;;;8.38;;
46439;SDS011;32138;50.966;6.968;2023-11-22T06:19:00;10.50;;;8.27;;
46439;SDS011;32138;50.966;6.968;2023-11-22T06:20:31;12.43;;;7.78;;
46439;SDS011;32138;50.966;6.968;2023-11-22T06:22:02;9.73;;;7.75;;
46439;SDS011;32138;50.966;6.968;2023-11-22T06:23:32;9.55;;;7.60;;
46439;SDS011;32138;50.966;6.968;2023-11-22T06:25:03;9.57;;;7.80;;
46439;SDS011;32138;50.966;6.968;2023-11-22T06:26:34;11.82;;;8.48;;
46439;SDS011;32138;50.966;6.968;2023-11-22T06:28:05;10.38;;;8.13;;
46439;SDS011;32138;50.966;6.968;2023-11-22T06:29:36;10.15;;;8.13;;
46439;SDS011;32138;50.966;6.968;2023-11-22T06:31:07;8.90;;;7.47;;
46439;SDS011;32138;50.966;6.968;2023-11-22T06:32:38;12.25;;;7.68;;
46439;SDS011;32138;50.966;6.968;2023-11-22T06:34:08;9.77;;;7.18;;
46439;SDS011;32138;50.966;6.968;2023-11-22T06:35:39;10.30;;;8.27;;
46439;SDS011;32138;50.966;6.968;2023-11-22T06:37:12;8.57;;;7.20;;
46439;SDS011;32138;50.966;6.968;2023-11-22T06:38:43;12.93;;;8.70;;
46439;SDS011;32138;50.966;6.968;2023-11-22T06:40:13;10.07;;;7.55;;
46439;SDS011;32138;50.966;6.968;2023-11-22T06:41:44;9.63;;;6.97;;
46439;SDS011;32138;50.966;6.968;2023-11-22T06:43:15;10.07;;;7.38;;
46439;SDS011;32138;50.966;6.968;2023-11-22T06:44:46;10.95;;;7.95;;
46439;SDS011;32138;50.966;6.968;2023-11-22T06:46:18;11.98;;;7.10;;
46439;SDS011;32138;50.966;6.968;2023-11-22T06:47:48;8.38;;;6.63;;
46439;SDS011;32138;50.966;6.968;2023-11-22T06:49:20;9.23;;;7.13;;
46439;SDS011;32138;50.966;6.968;2023-11-22T06:50:51;8.15;;;6.68;;
46439;SDS011;32138;50.966;6.968;2023-11-22T06:52:21;10.52;;;8.05;;
46439;SDS011;32138;50.966;6.968;2023-11-22T06:53:52;10.52;;;7.05;;
46439;SDS011;32138;50.966;6.968;2023-11-22T06:55:24;13.02;;;7.72;;
46439;SDS011;32138;50.966;6.968;2023-11-22T06:56:57;9.20;;;6.63;;
46439;SDS011;32138;50.966;6.968;2023-11-22T06:58:27;9.00;;;7.20;;
46439;SDS011;32138;50.966;6.968;2023-11-22T06:59:58;11.63;;;8.52;;
46439;SDS011;32138;50.966;6.968;2023-11-22T07:01:31;9.98;;;7.30;;
46439;SDS011;32138;50.966;6.968;2023-11-22T07:03:01;8.95;;;7.10;;
46439;SDS011;32138;50.966;6.968;2023-11-22T07:04:32;9.65;;;6.63;;
46439;SDS011;32138;50.966;6.968;2023-11-22T07:06:04;7.45;;;5.72;;
46439;SDS011;32138;50.966;6.968;2023-11-22T07:07:35;12.07;;;7.63;;
46439;SDS011;32138;50.966;6.968;2023-11-22T07:09:06;11.07;;;7.55;;
46439;SDS011;32138;50.966;6.968;2023-11-22T07:10:39;10.45;;;7.03;;
46439;SDS011;32138;50.966;6.968;2023-11-22T07:12:10;7.82;;;6.55;;
46439;SDS011;32138;50.966;6.968;2023-11-22T07:13:41;10.43;;;6.65;;
46439;SDS011;32138;50.966;6.968;2023-11-22T07:15:11;10.15;;;7.57;;
46439;SDS011;32138;50.966;6.968;2023-11-22T07:16:43;10.73;;;6.88;;
46439;SDS011;32138;50.966;6.968;2023-11-22T07:18:14;11.88;;;7.20;;
46439;SDS011;32138;50.966;6.968;2023-11-22T07:19:45;9.55;;;6.85;;
46439;SDS011;32138;50.966;6.968;2023-11-22T07:21:19;9.52;;;7.13;;
46439;SDS011;32138;50.966;6.968;2023-11-22T07:22:50;11.55;;;8.00;;
46439;SDS011;32138;50.966;6.968;2023-11-22T07:24:25;10.95;;;8.32;;
46439;SDS011;32138;50.966;6.968;2023-11-22T07:25:55;16.17;;;8.40;;
46439;SDS011;32138;50.966;6.968;2023-11-22T07:27:26;8.98;;;7.38;;
46439;SDS011;32138;50.966;6.968;2023-11-22T07:28:57;13.18;;;8.25;;
46439;SDS011;32138;50.966;6.968;2023-11-22T07:30:28;14.18;;;8.75;;
46439;SDS011;32138;50.966;6.968;2023-11-22T07:32:00;9.68;;;7.43;;
46439;SDS011;32138;50.966;6.968;2023-11-22T07:33:31;9.30;;;7.18;;
46439;SDS011;32138;50.966;6.968;2023-11-22T07:35:02;8.35;;;6.38;;
46439;SDS011;32138;50.966;6.968;2023-11-22T07:36:33;9.82;;;7.15;;
46439;SDS011;32138;50.966;6.968;2023-11-22T07:38:05;12.13;;;7.63;;
46439;SDS011;32138;50.966;6.968;2023-11-22T07:39:38;14.60;;;8.57;;
46439;SDS011;32138;50.966;6.968;2023-11-22T07:41:10;9.73;;;7.60;;
46439;SDS011;32138;50.966;6.968;2023-11-22T07:42:41;13.00;;;7.55;;
46439;SDS011;32138;50.966;6.968;2023-11-22T07:44:14;11.65;;;7.65;;
46439;SDS011;32138;50.966;6.968;2023-11-22T07:45:45;12.30;;;7.78;;
46439;SDS011;32138;50.966;6.968;2023-11-22T07:47:17;9.25;;;7.13;;
46439;SDS011;32138;50.966;6.968;2023-11-22T07:48:48;9.20;;;6.80;;
46439;SDS011;32138;50.966;6.968;2023-11-22T07:50:19;11.75;;;7.35;;
46439;SDS011;32138;50.966;6.968;2023-11-22T07:51:52;9.75;;;7.05;;
46439;SDS011;32138;50.966;6.968;2023-11-22T07:53:22;9.38;;;7.28;;
46439;SDS011;32138;50.966;6.968;2023-11-22T07:54:59;8.93;;;6.78;;
46439;SDS011;32138;50.966;6.968;2023-11-22T07:56:29;10.57;;;6.80;;
46439;SDS011;32138;50.966;6.968;2023-11-22T07:58:02;8.63;;;6.88;;
46439;SDS011;32138;50.966;6.968;2023-11-22T07:59:36;11.70;;;6.63;;
46439;SDS011;32138;50.966;6.968;2023-11-22T08:01:07;8.05;;;6.38;;
46439;SDS011;32138;50.966;6.968;2023-11-22T08:02:43;7.00;;;5.72;;
46439;SDS011;32138;50.966;6.968;2023-11-22T08:04:14;10.55;;;5.97;;
46439;SDS011;32138;50.966;6.968;2023-11-22T08:05:46;7.40;;;6.13;;
46439;SDS011;32138;50.966;6.968;2023-11-22T08:07:18;11.10;;;5.82;;
46439;SDS011;32138;50.966;6.968;2023-11-22T08:08:51;11.38;;;6.90;;
46439;SDS011;32138;50.966;6.968;2023-11-22T08:10:23;7.68;;;5.80;;
46439;SDS011;32138;50.966;6.968;2023-11-22T08:11:55;9.90;;;6.75;;
46439;SDS011;32138;50.966;6.968;2023-11-22T08:13:26;7.95;;;5.80;;
46439;SDS011;32138;50.966;6.968;2023-11-22T08:14:57;9.20;;;6.32;;
46439;SDS011;32138;50.966;6.968;2023-11-22T08:16:28;8.98;;;6.20;;
46439;SDS011;32138;50.966;6.968;2023-11-22T08:17:58;8.07;;;6.05;;
46439;SDS011;32138;50.966;6.968;2023-11-22T08:19:30;7.45;;;6.20;;
46439;SDS011;32138;50.966;6.968;2023-11-22T08:21:01;6.70;;;5.53;;
46439;SDS011;32138;50.966;6.968;2023-11-22T08:22:32;6.75;;;5.25;;
46439;SDS011;32138;50.966;6.968;2023-11-22T08:24:05;8.82;;;5.47;;
46439;SDS011;32138;50.966;6.968;2023-11-22T08:25:36;9.90;;;5.47;;
46439;SDS011;32138;50.966;6.968;2023-11-22T08:27:08;7.03;;;5.35;;
46439;SDS011;32138;50.966;6.968;2023-11-22T08:28:39;6.25;;;4.40;;
46439;SDS011;32138;50.966;6.968;2023-11-22T08:30:10;8.25;;;5.00;;
46439;SDS011;32138;50.966;6.968;2023-11-22T08:31:45;9.32;;;5.50;;
46439;SDS011;32138;50.966;6.968;2023-11-22T08:33:16;5.35;;;4.75;;
46439;SDS011;32138;50.966;6.968;2023-11-22T08:34:46;5.80;;;5.13;;
46439;SDS011;32138;50.966;6.968;2023-11-22T08:36:17;6.72;;;4.57;;
46439;SDS011;32138;50.966;6.968;2023-11-22T08:37:48;6.80;;;4.70;;
46439;SDS011;32138;50.966;6.968;2023-11-22T08:39:20;5.22;;;4.53;;
46439;SDS011;32138;50.966;6.968;2023-11-22T08:40:51;5.68;;;5.05;;
46439;SDS011;32138;50.966;6.968;2023-11-22T08:42:22;7.45;;;4.88;;
46439;SDS011;32138;50.966;6.968;2023-11-22T08:43:53;7.40;;;4.72;;
46439;SDS011;32138;50.966;6.968;2023-11-22T08:45:24;8.75;;;5.45;;
46439;SDS011;32138;50.966;6.968;2023-11-22T08:46:54;6.47;;;4.70;;
46439;SDS011;32138;50.966;6.968;2023-11-22T08:48:25;6.05;;;4.90;;
46439;SDS011;32138;50.966;6.968;2023-11-22T08:49:56;6.57;;;4.63;;
46439;SDS011;32138;50.966;6.968;2023-11-22T08:51:27;8.77;;;5.50;;
46439;SDS011;32138;50.966;6.968;2023-11-22T08:52:58;7.88;;;5.38;;
46439;SDS011;32138;50.966;6.968;2023-11-22T08:54:30;7.20;;;5.13;;
46439;SDS011;32138;50.966;6.968;2023-11-22T08:56:01;7.10;;;4.88;;
46439;SDS011;32138;50.966;6.968;2023-11-22T08:57:38;6.07;;;4.97;;
46439;SDS011;32138;50.966;6.968;2023-11-22T08:59:10;8.38;;;5.63;;
46439;SDS011;32138;50.966;6.968;2023-11-22T09:00:41;8.40;;;4.97;;